sensor_id;sensor_type;location;lat;lon;timestamp;P1;durP1;ratioP1;P2;durP2;ratioP2
74523;SDS011;63074;44.696;10.358;2023-09-07T00:00:04;7.07;;;3.78;;
74523;SDS011;63074;44.696;10.358;2023-09-07T00:02:31;4.22;;;3.20;;
74523;SDS011;63074;44.696;10.358;2023-09-07T00:04:57;4.22;;;2.85;;
74523;SDS011;63074;44.696;10.358;2023-09-07T00:07:23;4.05;;;2.88;;
74523;SDS011;63074;44.696;10.358;2023-09-07T00:09:50;4.38;;;2.88;;
74523;SDS011;63074;44.696;10.358;2023-09-07T00:12:16;4.63;;;3.05;;
74523;SDS011;63074;44.696;10.358;2023-09-07T00:14:42;3.58;;;2.72;;
74523;SDS011;63074;44.696;10.358;2023-09-07T00:17:08;5.47;;;3.30;;
74523;SDS011;63074;44.696;10.358;2023-09-07T00:19:34;3.65;;;2.67;;
74523;SDS011;63074;44.696;10.358;2023-09-07T00:22:02;4.03;;;2.70;;
74523;SDS011;63074;44.696;10.358;2023-09-07T00:24:30;3.63;;;2.95;;
74523;SDS011;63074;44.696;10.358;2023-09-07T00:26:59;4.10;;;3.03;;
74523;SDS011;63074;44.696;10.358;2023-09-07T00:29:25;3.72;;;2.78;;
74523;SDS011;63074;44.696;10.358;2023-09-07T00:31:51;5.07;;;3.08;;
74523;SDS011;63074;44.696;10.358;2023-09-07T00:34:17;3.65;;;3.00;;
74523;SDS011;63074;44.696;10.358;2023-09-07T00:36:43;4.75;;;2.85;;
74523;SDS011;63074;44.696;10.358;2023-09-07T00:39:09;4.35;;;2.90;;
74523;SDS011;63074;44.696;10.358;2023-09-07T00:41:36;3.65;;;3.08;;
74523;SDS011;63074;44.696;10.358;2023-09-07T00:44:02;4.18;;;3.03;;
74523;SDS011;63074;44.696;10.358;2023-09-07T00:46:28;3.78;;;2.85;;
74523;SDS011;63074;44.696;10.358;2023-09-07T00:48:55;4.20;;;3.05;;
74523;SDS011;63074;44.696;10.358;2023-09-07T00:51:22;3.97;;;2.80;;
74523;SDS011;63074;44.696;10.358;2023-09-07T00:53:49;4.18;;;3.20;;
74523;SDS011;63074;44.696;10.358;2023-09-07T00:56:15;4.28;;;3.53;;
74523;SDS011;63074;44.696;10.358;2023-09-07T00:58:42;4.45;;;3.08;;
74523;SDS011;63074;44.696;10.358;2023-09-07T01:01:08;5.47;;;3.45;;
74523;SDS011;63074;44.696;10.358;2023-09-07T01:03:35;5.13;;;3.67;;
74523;SDS011;63074;44.696;10.358;2023-09-07T01:06:02;3.72;;;2.70;;
74523;SDS011;63074;44.696;10.358;2023-09-07T01:08:42;4.35;;;3.20;;
74523;SDS011;63074;44.696;10.358;2023-09-07T01:11:12;4.18;;;2.88;;
74523;SDS011;63074;44.696;10.358;2023-09-07T01:13:40;5.07;;;3.28;;
74523;SDS011;63074;44.696;10.358;2023-09-07T01:16:07;4.75;;;3.33;;
74523;SDS011;63074;44.696;10.358;2023-09-07T01:18:37;5.50;;;3.38;;
74523;SDS011;63074;44.696;10.358;2023-09-07T01:21:07;4.20;;;3.03;;
74523;SDS011;63074;44.696;10.358;2023-09-07T01:23:38;5.75;;;3.13;;
74523;SDS011;63074;44.696;10.358;2023-09-07T01:26:06;5.00;;;2.97;;
74523;SDS011;63074;44.696;10.358;2023-09-07T01:28:34;4.22;;;2.90;;
74523;SDS011;63074;44.696;10.358;2023-09-07T01:31:02;4.47;;;3.22;;
74523;SDS011;63074;44.696;10.358;2023-09-07T01:33:28;4.47;;;3.33;;
74523;SDS011;63074;44.696;10.358;2023-09-07T01:35:55;3.88;;;3.03;;
74523;SDS011;63074;44.696;10.358;2023-09-07T01:38:21;3.53;;;3.00;;
74523;SDS011;63074;44.696;10.358;2023-09-07T01:40:47;7.40;;;3.45;;
74523;SDS011;63074;44.696;10.358;2023-09-07T01:43:13;4.15;;;3.38;;
74523;SDS011;63074;44.696;10.358;2023-09-07T01:45:39;5.45;;;2.78;;
74523;SDS011;63074;44.696;10.358;2023-09-07T01:48:08;4.95;;;3.25;;
74523;SDS011;63074;44.696;10.358;2023-09-07T01:50:36;4.10;;;3.33;;
74523;SDS011;63074;44.696;10.358;2023-09-07T01:53:03;4.07;;;2.88;;
74523;SDS011;63074;44.696;10.358;2023-09-07T01:55:30;4.60;;;3.28;;
74523;SDS011;63074;44.696;10.358;2023-09-07T01:57:56;5.53;;;3.25;;
74523;SDS011;63074;44.696;10.358;2023-09-07T02:00:23;4.97;;;3.45;;
74523;SDS011;63074;44.696;10.358;2023-09-07T02:02:49;4.78;;;3.30;;
74523;SDS011;63074;44.696;10.358;2023-09-07T02:05:15;3.85;;;2.90;;
74523;SDS011;63074;44.696;10.358;2023-09-07T02:07:42;6.13;;;3.72;;
74523;SDS011;63074;44.696;10.358;2023-09-07T02:10:08;8.23;;;3.65;;
74523;SDS011;63074;44.696;10.358;2023-09-07T02:12:35;6.57;;;3.55;;
74523;SDS011;63074;44.696;10.358;2023-09-07T02:15:01;5.18;;;3.95;;
74523;SDS011;63074;44.696;10.358;2023-09-07T02:17:29;5.75;;;3.92;;
74523;SDS011;63074;44.696;10.358;2023-09-07T02:19:55;5.05;;;3.85;;
74523;SDS011;63074;44.696;10.358;2023-09-07T02:22:22;5.57;;;4.15;;
74523;SDS011;63074;44.696;10.358;2023-09-07T02:24:48;6.50;;;3.92;;
74523;SDS011;63074;44.696;10.358;2023-09-07T02:27:14;8.38;;;4.15;;
74523;SDS011;63074;44.696;10.358;2023-09-07T02:29:40;6.47;;;4.03;;
74523;SDS011;63074;44.696;10.358;2023-09-07T02:32:06;4.88;;;3.65;;
74523;SDS011;63074;44.696;10.358;2023-09-07T02:34:34;5.10;;;3.92;;
74523;SDS011;63074;44.696;10.358;2023-09-07T02:37:01;4.95;;;4.05;;
74523;SDS011;63074;44.696;10.358;2023-09-07T02:39:28;5.55;;;4.15;;
74523;SDS011;63074;44.696;10.358;2023-09-07T02:41:54;5.65;;;4.28;;
74523;SDS011;63074;44.696;10.358;2023-09-07T02:44:20;5.95;;;3.97;;
74523;SDS011;63074;44.696;10.358;2023-09-07T02:46:46;7.15;;;4.35;;
74523;SDS011;63074;44.696;10.358;2023-09-07T02:49:13;5.88;;;4.15;;
74523;SDS011;63074;44.696;10.358;2023-09-07T02:51:39;6.32;;;4.38;;
74523;SDS011;63074;44.696;10.358;2023-09-07T02:54:05;5.85;;;4.43;;
74523;SDS011;63074;44.696;10.358;2023-09-07T02:56:32;7.00;;;4.97;;
74523;SDS011;63074;44.696;10.358;2023-09-07T02:58:58;6.47;;;4.75;;
74523;SDS011;63074;44.696;10.358;2023-09-07T03:01:24;6.68;;;5.13;;
74523;SDS011;63074;44.696;10.358;2023-09-07T03:03:51;7.60;;;5.57;;
74523;SDS011;63074;44.696;10.358;2023-09-07T03:06:17;7.90;;;6.20;;
74523;SDS011;63074;44.696;10.358;2023-09-07T03:08:43;7.80;;;5.25;;
74523;SDS011;63074;44.696;10.358;2023-09-07T03:11:10;7.50;;;4.85;;
74523;SDS011;63074;44.696;10.358;2023-09-07T03:13:36;6.75;;;5.05;;
74523;SDS011;63074;44.696;10.358;2023-09-07T03:16:03;7.13;;;5.43;;
74523;SDS011;63074;44.696;10.358;2023-09-07T03:18:30;6.00;;;4.45;;
74523;SDS011;63074;44.696;10.358;2023-09-07T03:20:58;5.95;;;4.53;;
74523;SDS011;63074;44.696;10.358;2023-09-07T03:23:25;6.25;;;3.88;;
74523;SDS011;63074;44.696;10.358;2023-09-07T03:25:56;4.30;;;3.17;;
74523;SDS011;63074;44.696;10.358;2023-09-07T03:28:23;4.47;;;2.97;;
74523;SDS011;63074;44.696;10.358;2023-09-07T03:30:50;5.25;;;3.70;;
74523;SDS011;63074;44.696;10.358;2023-09-07T03:33:17;6.05;;;3.80;;
74523;SDS011;63074;44.696;10.358;2023-09-07T03:35:43;5.65;;;2.97;;
74523;SDS011;63074;44.696;10.358;2023-09-07T03:38:10;5.13;;;3.33;;
74523;SDS011;63074;44.696;10.358;2023-09-07T03:40:36;4.93;;;3.35;;
74523;SDS011;63074;44.696;10.358;2023-09-07T03:43:02;6.60;;;3.17;;
74523;SDS011;63074;44.696;10.358;2023-09-07T03:45:29;4.50;;;3.03;;
74523;SDS011;63074;44.696;10.358;2023-09-07T03:47:55;3.97;;;2.90;;
74523;SDS011;63074;44.696;10.358;2023-09-07T03:50:21;4.32;;;3.08;;
74523;SDS011;63074;44.696;10.358;2023-09-07T03:52:48;4.00;;;2.95;;
74523;SDS011;63074;44.696;10.358;2023-09-07T03:55:14;4.57;;;2.90;;
74523;SDS011;63074;44.696;10.358;2023-09-07T03:57:40;4.20;;;2.78;;
74523;SDS011;63074;44.696;10.358;2023-09-07T04:00:06;4.82;;;3.00;;
74523;SDS011;63074;44.696;10.358;2023-09-07T04:02:33;4.25;;;2.72;;
74523;SDS011;63074;44.696;10.358;2023-09-07T04:04:59;3.47;;;2.13;;
74523;SDS011;63074;44.696;10.358;2023-09-07T04:07:32;4.97;;;3.03;;
74523;SDS011;63074;44.696;10.358;2023-09-07T04:09:58;3.30;;;2.40;;
74523;SDS011;63074;44.696;10.358;2023-09-07T04:12:24;4.95;;;3.03;;
74523;SDS011;63074;44.696;10.358;2023-09-07T04:14:51;3.50;;;2.95;;
74523;SDS011;63074;44.696;10.358;2023-09-07T04:17:18;6.93;;;3.22;;
74523;SDS011;63074;44.696;10.358;2023-09-07T04:19:44;3.97;;;3.30;;
74523;SDS011;63074;44.696;10.358;2023-09-07T04:22:11;4.45;;;3.15;;
74523;SDS011;63074;44.696;10.358;2023-09-07T04:24:37;5.47;;;3.65;;
74523;SDS011;63074;44.696;10.358;2023-09-07T04:27:03;5.05;;;3.33;;
74523;SDS011;63074;44.696;10.358;2023-09-07T04:29:29;5.22;;;3.58;;
74523;SDS011;63074;44.696;10.358;2023-09-07T04:31:56;5.07;;;3.40;;
74523;SDS011;63074;44.696;10.358;2023-09-07T04:34:22;5.22;;;3.42;;
74523;SDS011;63074;44.696;10.358;2023-09-07T04:36:48;4.60;;;3.30;;
74523;SDS011;63074;44.696;10.358;2023-09-07T04:39:15;5.25;;;3.83;;
74523;SDS011;63074;44.696;10.358;2023-09-07T04:41:41;6.60;;;4.00;;
74523;SDS011;63074;44.696;10.358;2023-09-07T04:44:07;5.07;;;3.58;;
74523;SDS011;63074;44.696;10.358;2023-09-07T04:46:34;5.53;;;3.20;;
74523;SDS011;63074;44.696;10.358;2023-09-07T04:49:00;7.18;;;3.75;;
74523;SDS011;63074;44.696;10.358;2023-09-07T04:51:26;6.50;;;3.30;;
74523;SDS011;63074;44.696;10.358;2023-09-07T04:53:53;6.15;;;3.75;;
74523;SDS011;63074;44.696;10.358;2023-09-07T04:56:19;6.05;;;3.55;;
74523;SDS011;63074;44.696;10.358;2023-09-07T04:58:47;5.28;;;3.22;;
74523;SDS011;63074;44.696;10.358;2023-09-07T05:01:13;5.10;;;3.22;;
74523;SDS011;63074;44.696;10.358;2023-09-07T05:03:39;4.57;;;3.20;;
74523;SDS011;63074;44.696;10.358;2023-09-07T05:06:06;5.53;;;3.35;;
74523;SDS011;63074;44.696;10.358;2023-09-07T05:08:32;5.53;;;3.20;;
74523;SDS011;63074;44.696;10.358;2023-09-07T05:10:59;5.55;;;3.15;;
74523;SDS011;63074;44.696;10.358;2023-09-07T05:13:27;4.50;;;3.28;;
74523;SDS011;63074;44.696;10.358;2023-09-07T05:15:54;5.90;;;3.33;;
74523;SDS011;63074;44.696;10.358;2023-09-07T05:18:21;5.25;;;2.83;;
74523;SDS011;63074;44.696;10.358;2023-09-07T05:20:48;4.68;;;3.40;;
74523;SDS011;63074;44.696;10.358;2023-09-07T05:23:16;7.22;;;3.38;;
74523;SDS011;63074;44.696;10.358;2023-09-07T05:25:53;4.95;;;3.58;;
74523;SDS011;63074;44.696;10.358;2023-09-07T05:28:21;4.60;;;2.88;;
74523;SDS011;63074;44.696;10.358;2023-09-07T05:30:47;6.35;;;3.45;;
74523;SDS011;63074;44.696;10.358;2023-09-07T05:33:15;4.75;;;3.22;;
74523;SDS011;63074;44.696;10.358;2023-09-07T05:35:43;5.88;;;3.15;;
74523;SDS011;63074;44.696;10.358;2023-09-07T05:38:10;4.35;;;2.90;;
74523;SDS011;63074;44.696;10.358;2023-09-07T05:40:37;4.72;;;3.22;;
74523;SDS011;63074;44.696;10.358;2023-09-07T05:43:06;8.18;;;3.47;;
74523;SDS011;63074;44.696;10.358;2023-09-07T05:45:35;4.40;;;3.47;;
74523;SDS011;63074;44.696;10.358;2023-09-07T05:48:03;5.07;;;3.50;;
74523;SDS011;63074;44.696;10.358;2023-09-07T05:50:30;5.00;;;3.28;;
74523;SDS011;63074;44.696;10.358;2023-09-07T05:53:01;4.43;;;3.05;;
74523;SDS011;63074;44.696;10.358;2023-09-07T05:55:28;5.43;;;3.08;;
74523;SDS011;63074;44.696;10.358;2023-09-07T05:57:55;4.45;;;2.67;;
74523;SDS011;63074;44.696;10.358;2023-09-07T06:00:22;4.50;;;3.25;;
74523;SDS011;63074;44.696;10.358;2023-09-07T06:02:48;5.93;;;3.70;;
74523;SDS011;63074;44.696;10.358;2023-09-07T06:05:15;6.03;;;3.25;;
74523;SDS011;63074;44.696;10.358;2023-09-07T06:07:41;4.68;;;3.58;;
74523;SDS011;63074;44.696;10.358;2023-09-07T06:10:08;4.53;;;3.05;;
74523;SDS011;63074;44.696;10.358;2023-09-07T06:12:35;4.60;;;3.42;;
74523;SDS011;63074;44.696;10.358;2023-09-07T06:15:01;5.55;;;3.13;;
74523;SDS011;63074;44.696;10.358;2023-09-07T06:17:28;4.35;;;2.65;;
74523;SDS011;63074;44.696;10.358;2023-09-07T06:19:54;4.10;;;3.08;;
74523;SDS011;63074;44.696;10.358;2023-09-07T06:22:21;3.95;;;2.65;;
74523;SDS011;63074;44.696;10.358;2023-09-07T06:24:48;5.18;;;3.20;;
74523;SDS011;63074;44.696;10.358;2023-09-07T06:27:14;4.10;;;2.90;;
74523;SDS011;63074;44.696;10.358;2023-09-07T06:29:41;4.93;;;3.00;;
74523;SDS011;63074;44.696;10.358;2023-09-07T06:32:07;6.00;;;2.97;;
74523;SDS011;63074;44.696;10.358;2023-09-07T06:34:33;3.60;;;2.53;;
74523;SDS011;63074;44.696;10.358;2023-09-07T06:36:59;4.35;;;2.50;;
74523;SDS011;63074;44.696;10.358;2023-09-07T06:39:26;4.15;;;2.60;;
74523;SDS011;63074;44.696;10.358;2023-09-07T06:41:52;4.68;;;2.63;;
74523;SDS011;63074;44.696;10.358;2023-09-07T06:44:19;3.35;;;2.50;;
74523;SDS011;63074;44.696;10.358;2023-09-07T06:46:45;4.22;;;2.30;;
74523;SDS011;63074;44.696;10.358;2023-09-07T06:49:11;3.10;;;2.25;;
74523;SDS011;63074;44.696;10.358;2023-09-07T06:51:38;3.90;;;2.45;;
74523;SDS011;63074;44.696;10.358;2023-09-07T06:54:04;3.97;;;2.95;;
74523;SDS011;63074;44.696;10.358;2023-09-07T06:56:30;4.13;;;2.05;;
74523;SDS011;63074;44.696;10.358;2023-09-07T06:58:58;3.63;;;2.42;;
74523;SDS011;63074;44.696;10.358;2023-09-07T07:01:25;5.38;;;2.85;;
74523;SDS011;63074;44.696;10.358;2023-09-07T07:03:51;3.90;;;2.65;;
74523;SDS011;63074;44.696;10.358;2023-09-07T07:06:18;5.38;;;2.72;;
74523;SDS011;63074;44.696;10.358;2023-09-07T07:08:44;3.80;;;2.78;;
74523;SDS011;63074;44.696;10.358;2023-09-07T07:11:10;4.53;;;2.83;;
74523;SDS011;63074;44.696;10.358;2023-09-07T07:13:36;3.97;;;2.45;;
74523;SDS011;63074;44.696;10.358;2023-09-07T07:16:03;6.00;;;3.25;;
74523;SDS011;63074;44.696;10.358;2023-09-07T07:18:29;5.50;;;3.13;;
74523;SDS011;63074;44.696;10.358;2023-09-07T07:20:56;3.88;;;3.03;;
74523;SDS011;63074;44.696;10.358;2023-09-07T07:23:22;4.65;;;3.10;;
74523;SDS011;63074;44.696;10.358;2023-09-07T07:25:48;5.25;;;2.75;;
74523;SDS011;63074;44.696;10.358;2023-09-07T07:28:16;4.65;;;3.10;;
74523;SDS011;63074;44.696;10.358;2023-09-07T07:30:42;3.85;;;2.67;;
74523;SDS011;63074;44.696;10.358;2023-09-07T07:33:08;5.80;;;2.90;;
74523;SDS011;63074;44.696;10.358;2023-09-07T07:35:36;5.82;;;3.25;;
74523;SDS011;63074;44.696;10.358;2023-09-07T07:38:03;6.78;;;3.63;;
74523;SDS011;63074;44.696;10.358;2023-09-07T07:40:31;5.22;;;2.83;;
74523;SDS011;63074;44.696;10.358;2023-09-07T07:42:57;5.00;;;3.15;;
74523;SDS011;63074;44.696;10.358;2023-09-07T07:45:24;6.28;;;3.20;;
74523;SDS011;63074;44.696;10.358;2023-09-07T07:47:50;5.65;;;3.17;;
74523;SDS011;63074;44.696;10.358;2023-09-07T07:50:17;5.03;;;2.95;;
74523;SDS011;63074;44.696;10.358;2023-09-07T07:52:43;5.10;;;3.42;;
74523;SDS011;63074;44.696;10.358;2023-09-07T07:55:11;5.65;;;3.53;;
74523;SDS011;63074;44.696;10.358;2023-09-07T07:57:37;4.40;;;3.70;;
74523;SDS011;63074;44.696;10.358;2023-09-07T08:00:04;5.20;;;3.90;;
74523;SDS011;63074;44.696;10.358;2023-09-07T08:02:31;6.18;;;4.07;;
74523;SDS011;63074;44.696;10.358;2023-09-07T08:04:58;8.20;;;5.25;;
74523;SDS011;63074;44.696;10.358;2023-09-07T08:07:24;7.90;;;5.30;;
74523;SDS011;63074;44.696;10.358;2023-09-07T08:09:51;6.43;;;4.70;;
74523;SDS011;63074;44.696;10.358;2023-09-07T08:12:17;7.30;;;5.57;;
74523;SDS011;63074;44.696;10.358;2023-09-07T08:14:44;8.40;;;5.30;;
74523;SDS011;63074;44.696;10.358;2023-09-07T08:17:10;6.57;;;4.60;;
74523;SDS011;63074;44.696;10.358;2023-09-07T08:19:36;7.35;;;4.40;;
74523;SDS011;63074;44.696;10.358;2023-09-07T08:22:03;7.65;;;5.03;;
74523;SDS011;63074;44.696;10.358;2023-09-07T08:24:30;8.00;;;5.07;;
74523;SDS011;63074;44.696;10.358;2023-09-07T08:26:57;8.55;;;4.93;;
74523;SDS011;63074;44.696;10.358;2023-09-07T08:29:25;8.07;;;5.07;;
74523;SDS011;63074;44.696;10.358;2023-09-07T08:31:52;8.18;;;4.55;;
74523;SDS011;63074;44.696;10.358;2023-09-07T08:34:19;8.02;;;4.60;;
74523;SDS011;63074;44.696;10.358;2023-09-07T08:36:47;4.75;;;3.70;;
74523;SDS011;63074;44.696;10.358;2023-09-07T08:39:15;6.10;;;4.03;;
74523;SDS011;63074;44.696;10.358;2023-09-07T08:41:42;6.18;;;3.95;;
74523;SDS011;63074;44.696;10.358;2023-09-07T08:44:17;6.10;;;4.07;;
74523;SDS011;63074;44.696;10.358;2023-09-07T08:46:49;4.50;;;3.13;;
74523;SDS011;63074;44.696;10.358;2023-09-07T08:49:17;5.53;;;3.58;;
74523;SDS011;63074;44.696;10.358;2023-09-07T08:51:48;5.95;;;4.57;;
74523;SDS011;63074;44.696;10.358;2023-09-07T08:54:15;6.25;;;4.00;;
74523;SDS011;63074;44.696;10.358;2023-09-07T08:56:42;5.15;;;3.72;;
74523;SDS011;63074;44.696;10.358;2023-09-07T08:59:10;10.38;;;3.55;;
74523;SDS011;63074;44.696;10.358;2023-09-07T09:01:36;7.63;;;3.92;;
74523;SDS011;63074;44.696;10.358;2023-09-07T09:04:03;4.55;;;3.13;;
74523;SDS011;63074;44.696;10.358;2023-09-07T09:06:29;6.15;;;2.95;;
74523;SDS011;63074;44.696;10.358;2023-09-07T09:08:56;6.85;;;3.30;;
74523;SDS011;63074;44.696;10.358;2023-09-07T09:11:23;6.47;;;3.72;;
74523;SDS011;63074;44.696;10.358;2023-09-07T09:13:51;5.35;;;3.08;;
74523;SDS011;63074;44.696;10.358;2023-09-07T09:16:18;4.65;;;3.40;;
74523;SDS011;63074;44.696;10.358;2023-09-07T09:21:22;5.65;;;3.70;;
74523;SDS011;63074;44.696;10.358;2023-09-07T09:23:49;6.65;;;3.78;;
74523;SDS011;63074;44.696;10.358;2023-09-07T09:26:17;6.07;;;3.95;;
74523;SDS011;63074;44.696;10.358;2023-09-07T09:28:44;5.30;;;3.38;;
74523;SDS011;63074;44.696;10.358;2023-09-07T09:31:10;5.72;;;3.95;;
74523;SDS011;63074;44.696;10.358;2023-09-07T09:33:40;5.78;;;3.60;;
74523;SDS011;63074;44.696;10.358;2023-09-07T09:36:08;4.10;;;3.15;;
74523;SDS011;63074;44.696;10.358;2023-09-07T09:38:34;5.43;;;3.55;;
74523;SDS011;63074;44.696;10.358;2023-09-07T09:41:01;4.03;;;3.22;;
74523;SDS011;63074;44.696;10.358;2023-09-07T09:43:28;4.43;;;3.47;;
74523;SDS011;63074;44.696;10.358;2023-09-07T09:45:55;5.50;;;3.80;;
74523;SDS011;63074;44.696;10.358;2023-09-07T09:48:21;5.97;;;3.58;;
74523;SDS011;63074;44.696;10.358;2023-09-07T09:50:48;5.30;;;3.35;;
74523;SDS011;63074;44.696;10.358;2023-09-07T09:53:15;4.97;;;3.40;;
74523;SDS011;63074;44.696;10.358;2023-09-07T09:55:44;4.13;;;3.33;;
74523;SDS011;63074;44.696;10.358;2023-09-07T09:58:14;5.20;;;3.55;;
74523;SDS011;63074;44.696;10.358;2023-09-07T10:00:45;5.95;;;3.35;;
74523;SDS011;63074;44.696;10.358;2023-09-07T10:03:21;4.95;;;3.60;;
74523;SDS011;63074;44.696;10.358;2023-09-07T10:05:52;5.38;;;3.40;;
74523;SDS011;63074;44.696;10.358;2023-09-07T10:08:18;5.70;;;2.95;;
74523;SDS011;63074;44.696;10.358;2023-09-07T10:10:47;3.60;;;3.08;;
74523;SDS011;63074;44.696;10.358;2023-09-07T10:13:29;7.47;;;3.53;;
74523;SDS011;63074;44.696;10.358;2023-09-07T10:16:00;4.88;;;3.47;;
74523;SDS011;63074;44.696;10.358;2023-09-07T10:18:35;5.47;;;3.35;;
74523;SDS011;63074;44.696;10.358;2023-09-07T10:21:02;6.15;;;3.28;;
74523;SDS011;63074;44.696;10.358;2023-09-07T10:23:39;4.70;;;3.35;;
74523;SDS011;63074;44.696;10.358;2023-09-07T10:26:17;4.70;;;3.20;;
74523;SDS011;63074;44.696;10.358;2023-09-07T10:28:46;4.72;;;3.33;;
74523;SDS011;63074;44.696;10.358;2023-09-07T10:31:24;4.82;;;3.25;;
74523;SDS011;63074;44.696;10.358;2023-09-07T10:33:52;5.70;;;4.07;;
74523;SDS011;63074;44.696;10.358;2023-09-07T10:36:22;5.50;;;3.67;;
74523;SDS011;63074;44.696;10.358;2023-09-07T10:38:50;5.18;;;3.60;;
74523;SDS011;63074;44.696;10.358;2023-09-07T10:41:19;4.63;;;3.63;;
74523;SDS011;63074;44.696;10.358;2023-09-07T10:43:49;6.68;;;3.47;;
74523;SDS011;63074;44.696;10.358;2023-09-07T10:46:18;4.07;;;3.35;;
74523;SDS011;63074;44.696;10.358;2023-09-07T10:48:46;4.57;;;3.45;;
74523;SDS011;63074;44.696;10.358;2023-09-07T10:51:16;4.07;;;3.53;;
74523;SDS011;63074;44.696;10.358;2023-09-07T10:53:43;4.72;;;2.97;;
74523;SDS011;63074;44.696;10.358;2023-09-07T10:56:09;6.63;;;3.58;;
74523;SDS011;63074;44.696;10.358;2023-09-07T10:58:36;4.65;;;3.47;;
74523;SDS011;63074;44.696;10.358;2023-09-07T11:01:07;7.05;;;4.68;;
74523;SDS011;63074;44.696;10.358;2023-09-07T11:03:34;6.35;;;3.55;;
74523;SDS011;63074;44.696;10.358;2023-09-07T11:06:15;4.43;;;3.28;;
74523;SDS011;63074;44.696;10.358;2023-09-07T11:08:44;4.63;;;3.50;;
74523;SDS011;63074;44.696;10.358;2023-09-07T11:11:13;4.05;;;3.28;;
74523;SDS011;63074;44.696;10.358;2023-09-07T11:13:40;5.03;;;3.08;;
74523;SDS011;63074;44.696;10.358;2023-09-07T11:16:09;5.20;;;3.42;;
74523;SDS011;63074;44.696;10.358;2023-09-07T11:18:35;5.78;;;3.15;;
74523;SDS011;63074;44.696;10.358;2023-09-07T11:21:02;5.10;;;3.75;;
74523;SDS011;63074;44.696;10.358;2023-09-07T11:23:29;4.80;;;3.60;;
74523;SDS011;63074;44.696;10.358;2023-09-07T11:26:03;4.13;;;3.38;;
74523;SDS011;63074;44.696;10.358;2023-09-07T11:28:31;5.28;;;3.40;;
74523;SDS011;63074;44.696;10.358;2023-09-07T11:30:58;3.85;;;3.30;;
74523;SDS011;63074;44.696;10.358;2023-09-07T11:33:25;4.10;;;3.10;;
74523;SDS011;63074;44.696;10.358;2023-09-07T11:35:52;7.22;;;3.60;;
74523;SDS011;63074;44.696;10.358;2023-09-07T11:40:47;5.75;;;3.20;;
74523;SDS011;63074;44.696;10.358;2023-09-07T11:43:17;5.18;;;3.53;;
74523;SDS011;63074;44.696;10.358;2023-09-07T11:45:47;4.97;;;3.28;;
74523;SDS011;63074;44.696;10.358;2023-09-07T11:48:14;6.85;;;3.42;;
74523;SDS011;63074;44.696;10.358;2023-09-07T11:50:40;4.40;;;3.22;;
74523;SDS011;63074;44.696;10.358;2023-09-07T11:53:08;7.82;;;3.63;;
74523;SDS011;63074;44.696;10.358;2023-09-07T11:55:35;5.15;;;3.97;;
74523;SDS011;63074;44.696;10.358;2023-09-07T11:58:03;4.90;;;3.53;;
74523;SDS011;63074;44.696;10.358;2023-09-07T12:00:30;4.57;;;3.33;;
74523;SDS011;63074;44.696;10.358;2023-09-07T12:02:56;4.82;;;3.78;;
74523;SDS011;63074;44.696;10.358;2023-09-07T12:05:23;4.85;;;3.38;;
74523;SDS011;63074;44.696;10.358;2023-09-07T12:07:49;4.20;;;2.85;;
74523;SDS011;63074;44.696;10.358;2023-09-07T12:10:15;6.35;;;3.33;;
74523;SDS011;63074;44.696;10.358;2023-09-07T12:12:42;4.47;;;3.22;;
74523;SDS011;63074;44.696;10.358;2023-09-07T12:15:09;5.03;;;3.65;;
74523;SDS011;63074;44.696;10.358;2023-09-07T12:17:38;4.72;;;3.08;;
74523;SDS011;63074;44.696;10.358;2023-09-07T12:20:05;4.53;;;3.38;;
74523;SDS011;63074;44.696;10.358;2023-09-07T12:22:36;4.45;;;3.40;;
74523;SDS011;63074;44.696;10.358;2023-09-07T12:25:05;6.13;;;4.00;;
74523;SDS011;63074;44.696;10.358;2023-09-07T12:27:35;4.80;;;3.70;;
74523;SDS011;63074;44.696;10.358;2023-09-07T12:30:02;4.20;;;3.03;;
74523;SDS011;63074;44.696;10.358;2023-09-07T12:32:33;4.78;;;3.78;;
74523;SDS011;63074;44.696;10.358;2023-09-07T12:34:59;5.07;;;3.47;;
74523;SDS011;63074;44.696;10.358;2023-09-07T12:37:25;4.95;;;3.78;;
74523;SDS011;63074;44.696;10.358;2023-09-07T12:39:52;4.65;;;3.78;;
74523;SDS011;63074;44.696;10.358;2023-09-07T12:42:18;5.03;;;3.38;;
74523;SDS011;63074;44.696;10.358;2023-09-07T12:44:44;4.45;;;3.58;;
74523;SDS011;63074;44.696;10.358;2023-09-07T12:47:10;4.53;;;3.50;;
74523;SDS011;63074;44.696;10.358;2023-09-07T12:49:36;5.22;;;3.53;;
74523;SDS011;63074;44.696;10.358;2023-09-07T12:52:03;4.55;;;3.42;;
74523;SDS011;63074;44.696;10.358;2023-09-07T12:54:35;4.45;;;3.13;;
74523;SDS011;63074;44.696;10.358;2023-09-07T12:57:01;4.28;;;3.15;;
74523;SDS011;63074;44.696;10.358;2023-09-07T12:59:28;4.30;;;3.47;;
74523;SDS011;63074;44.696;10.358;2023-09-07T13:01:54;3.63;;;3.00;;
74523;SDS011;63074;44.696;10.358;2023-09-07T13:04:21;4.57;;;3.22;;
74523;SDS011;63074;44.696;10.358;2023-09-07T13:06:47;3.90;;;3.15;;
74523;SDS011;63074;44.696;10.358;2023-09-07T13:09:13;5.13;;;3.15;;
74523;SDS011;63074;44.696;10.358;2023-09-07T13:11:40;3.40;;;2.95;;
74523;SDS011;63074;44.696;10.358;2023-09-07T13:14:06;3.22;;;2.50;;
74523;SDS011;63074;44.696;10.358;2023-09-07T13:16:33;4.75;;;3.33;;
74523;SDS011;63074;44.696;10.358;2023-09-07T13:18:59;4.78;;;3.10;;
74523;SDS011;63074;44.696;10.358;2023-09-07T13:21:26;3.45;;;3.05;;
74523;SDS011;63074;44.696;10.358;2023-09-07T13:23:52;6.65;;;3.17;;
74523;SDS011;63074;44.696;10.358;2023-09-07T13:26:18;4.22;;;3.47;;
74523;SDS011;63074;44.696;10.358;2023-09-07T13:28:44;5.47;;;3.42;;
74523;SDS011;63074;44.696;10.358;2023-09-07T13:31:10;5.55;;;3.03;;
74523;SDS011;63074;44.696;10.358;2023-09-07T13:33:36;3.85;;;3.38;;
74523;SDS011;63074;44.696;10.358;2023-09-07T13:36:03;4.40;;;3.17;;
74523;SDS011;63074;44.696;10.358;2023-09-07T13:38:29;4.72;;;3.00;;
74523;SDS011;63074;44.696;10.358;2023-09-07T13:40:55;4.57;;;3.20;;
74523;SDS011;63074;44.696;10.358;2023-09-07T13:43:21;4.22;;;3.22;;
74523;SDS011;63074;44.696;10.358;2023-09-07T13:45:48;3.95;;;2.88;;
74523;SDS011;63074;44.696;10.358;2023-09-07T13:48:14;4.72;;;3.42;;
74523;SDS011;63074;44.696;10.358;2023-09-07T13:50:40;4.95;;;3.28;;
74523;SDS011;63074;44.696;10.358;2023-09-07T13:53:07;4.50;;;3.03;;
74523;SDS011;63074;44.696;10.358;2023-09-07T13:55:33;3.75;;;3.40;;
74523;SDS011;63074;44.696;10.358;2023-09-07T13:58:00;4.40;;;3.25;;
74523;SDS011;63074;44.696;10.358;2023-09-07T14:00:26;4.95;;;4.25;;
74523;SDS011;63074;44.696;10.358;2023-09-07T14:02:52;4.85;;;3.55;;
74523;SDS011;63074;44.696;10.358;2023-09-07T14:05:19;4.28;;;3.22;;
74523;SDS011;63074;44.696;10.358;2023-09-07T14:07:45;4.72;;;2.95;;
74523;SDS011;63074;44.696;10.358;2023-09-07T14:10:11;4.25;;;3.85;;
74523;SDS011;63074;44.696;10.358;2023-09-07T14:12:38;4.63;;;3.70;;
74523;SDS011;63074;44.696;10.358;2023-09-07T14:15:04;4.22;;;3.72;;
74523;SDS011;63074;44.696;10.358;2023-09-07T14:17:31;6.00;;;3.17;;
74523;SDS011;63074;44.696;10.358;2023-09-07T14:19:57;3.53;;;3.13;;
74523;SDS011;63074;44.696;10.358;2023-09-07T14:22:23;4.38;;;3.22;;
74523;SDS011;63074;44.696;10.358;2023-09-07T14:24:49;3.78;;;3.38;;
74523;SDS011;63074;44.696;10.358;2023-09-07T14:27:15;3.70;;;2.78;;
74523;SDS011;63074;44.696;10.358;2023-09-07T14:29:42;5.55;;;3.83;;
74523;SDS011;63074;44.696;10.358;2023-09-07T14:32:08;5.22;;;3.40;;
74523;SDS011;63074;44.696;10.358;2023-09-07T14:34:35;5.50;;;3.60;;
74523;SDS011;63074;44.696;10.358;2023-09-07T14:37:02;4.60;;;3.22;;